Pagrindinis puslapis
METAR-TAF:

METAR-TAF

Oro uostai :

Dawadmi, Saudo Arabija

platuma: 24-26-59N, ilguma: 044-07-16E, Aukštis: 922 m

Dabartinis oras

Ataskaita buvo paskelbta 25 minutes, ne 11:00 UTC
Vėjas 3 kt iš Pietvakarių
Temperatūra 31°C
Drėgmė 7%
Slėgis 1015 hPa
Matomumas 10 km arba daugiau
nėra debesų žemiau 1500 m ir nėra kamuolinių lietaus debesų

METAR: OEDM 251100Z 22003KT CAVOK 31/M09 Q1015

Laikas: 14:25 (11:25 UTC)

Prognozė

Ataskaita buvo paskelbta 6 valandos ir 25 minutes, ne 05:00 UTC
Prognozė galioja nuo 25 metu 06 UTC su 25 metu 20 UTC
Vėjas 6 kt iš Pietų su gūsio iki 16 kt
Matomumas: 7000 m

TAF: OEDM 250500Z 2506/2520 17006G16KT 7000 NSC

Orai ataskaitas ir orų prognozės (METAR, TAF).

turimą stotys yra geltonos ir raudonos taškus žemėlapyje.

Perkelti pele per norėdami pamatyti stoties vardą.

Tada spustelėkite, norėdami matyti oro stebėjimo ir prognozės.

Norėdami pakeisti žemėlapį: spustelėkite ant žalios mygtukų su juodo kryžiaus žemyn,; žalią mygtuką su brūkšneliu, jei norite nutolinti; arba žalių rodyklių gretimoms žemėlapius.


METAR-TAF: